createdAt,value
2023-03-21T00:00:19.355Z,13.73
2023-03-21T00:02:46.435Z,19.05
2023-03-21T00:05:15.720Z,12.43
2023-03-21T00:07:43.267Z,11.77
2023-03-21T00:10:16.679Z,16.77
2023-03-21T00:12:44.810Z,11.52
2023-03-21T00:15:12.912Z,13.35
2023-03-21T00:17:39.837Z,10.82
2023-03-21T00:20:15.281Z,15.38
2023-03-21T00:22:42.500Z,12.00
2023-03-21T00:25:10.507Z,14.35
2023-03-21T00:27:53.666Z,13.68
2023-03-21T00:30:24.049Z,9.50
2023-03-21T00:32:56.491Z,12.10
2023-03-21T00:36:06.679Z,8.40
2023-03-21T00:38:10.823Z,12.68
2023-03-21T00:40:43.687Z,15.20
2023-03-21T00:43:19.711Z,12.57
2023-03-21T00:45:46.895Z,12.38
2023-03-21T00:48:13.487Z,13.70
2023-03-21T00:50:40.443Z,11.63
2023-03-21T00:53:07.114Z,12.30
2023-03-21T00:55:34.072Z,12.23
2023-03-21T00:58:02.381Z,17.15
2023-03-21T01:00:29.829Z,12.02
2023-03-21T01:03:04.464Z,10.38
2023-03-21T01:05:57.420Z,10.77
2023-03-21T01:08:31.038Z,9.55
2023-03-21T01:11:03.874Z,9.02
2023-03-21T01:13:31.864Z,11.60
2023-03-21T01:16:00.021Z,12.60
2023-03-21T01:18:29.731Z,13.60
2023-03-21T01:20:58.721Z,13.02
2023-03-21T01:23:26.660Z,11.13
2023-03-21T01:25:54.598Z,10.98
2023-03-21T01:28:21.548Z,11.63
2023-03-21T01:30:51.608Z,6.78
2023-03-21T01:33:19.589Z,9.60
2023-03-21T01:35:53.357Z,12.65
2023-03-21T01:38:26.758Z,12.95
2023-03-21T01:40:53.616Z,11.75
2023-03-21T01:43:30.081Z,15.38
2023-03-21T01:46:05.604Z,9.57
2023-03-21T01:48:33.948Z,18.80
2023-03-21T01:51:01.615Z,12.20
2023-03-21T01:53:33.663Z,10.90
2023-03-21T01:56:06.980Z,16.10
2023-03-21T01:58:35.094Z,14.25
2023-03-21T02:01:03.002Z,11.35
2023-03-21T02:03:38.068Z,13.38
2023-03-21T02:06:11.641Z,10.57
2023-03-21T02:08:39.843Z,15.73
2023-03-21T02:11:08.293Z,14.95
2023-03-21T02:13:36.330Z,14.02
2023-03-21T02:16:12.652Z,16.17
2023-03-21T02:19:08.099Z,15.63
2023-03-21T02:21:53.057Z,13.85
2023-03-21T02:24:54.650Z,9.93
2023-03-21T02:27:29.047Z,15.63
2023-03-21T02:30:20.149Z,12.23
2023-03-21T02:33:00.192Z,13.93
2023-03-21T02:35:52.357Z,13.77
2023-03-21T02:38:40.682Z,13.75
2023-03-21T02:41:21.291Z,15.68
2023-03-21T02:44:02.304Z,12.93
2023-03-21T02:46:43.893Z,14.68
2023-03-21T02:49:26.630Z,17.90
2023-03-21T02:51:54.820Z,11.93
2023-03-21T02:54:38.255Z,17.40
2023-03-21T02:57:09.580Z,12.80
2023-03-21T02:59:44.535Z,13.40
2023-03-21T03:02:23.185Z,13.48
2023-03-21T03:04:49.777Z,15.93
2023-03-21T03:07:26.624Z,15.85
2023-03-21T03:10:38.083Z,15.00
2023-03-21T03:13:13.172Z,16.65
2023-03-21T03:15:47.958Z,10.75
2023-03-21T03:18:52.758Z,10.55
2023-03-21T03:21:37.985Z,12.68
2023-03-21T03:24:09.761Z,13.93
2023-03-21T03:26:41.571Z,14.70
2023-03-21T03:29:12.321Z,16.83
2023-03-21T03:31:47.306Z,14.00
2023-03-21T03:34:18.318Z,16.73
2023-03-21T03:36:51.570Z,10.52
2023-03-21T03:39:18.909Z,15.35
2023-03-21T03:42:21.642Z,14.65
2023-03-21T03:44:39.782Z,13.75
2023-03-21T03:47:20.240Z,12.10
2023-03-21T03:50:14.208Z,17.55
2023-03-21T03:52:56.161Z,15.27
2023-03-21T03:55:27.296Z,16.33
2023-03-21T03:57:55.095Z,12.05
2023-03-21T04:00:21.965Z,12.52
2023-03-21T04:02:48.494Z,15.27
2023-03-21T04:05:15.274Z,13.40
2023-03-21T04:07:41.926Z,13.90
2023-03-21T04:10:09.038Z,12.90
2023-03-21T04:12:35.492Z,20.25
2023-03-21T04:15:09.975Z,16.30
2023-03-21T04:17:38.480Z,12.70
2023-03-21T04:20:12.339Z,17.02
2023-03-21T04:22:43.329Z,15.43
2023-03-21T04:25:10.569Z,14.07
2023-03-21T04:27:37.226Z,17.65
2023-03-21T04:30:05.232Z,11.43
2023-03-21T04:32:33.948Z,14.02
2023-03-21T04:35:00.932Z,14.30
2023-03-21T04:37:28.881Z,12.48
2023-03-21T04:39:55.329Z,15.32
2023-03-21T04:42:21.879Z,15.63
2023-03-21T04:44:49.139Z,11.88
2023-03-21T04:47:20.392Z,10.85
2023-03-21T04:49:49.805Z,13.18
2023-03-21T04:52:16.405Z,10.32
2023-03-21T04:54:42.835Z,14.80
2023-03-21T04:57:09.472Z,13.75
2023-03-21T04:59:36.377Z,12.30
2023-03-21T05:02:02.990Z,11.05
2023-03-21T05:04:29.412Z,13.27
2023-03-21T05:06:56.209Z,12.30
2023-03-21T05:09:23.411Z,11.23
2023-03-21T05:11:50.634Z,10.13
2023-03-21T05:14:20.291Z,12.45
2023-03-21T05:16:53.514Z,12.35
2023-03-21T05:19:35.371Z,9.18
2023-03-21T05:22:10.792Z,10.90
2023-03-21T05:24:41.821Z,9.93
2023-03-21T05:27:08.356Z,13.18
2023-03-21T05:29:34.782Z,12.63
2023-03-21T05:32:01.557Z,7.88
2023-03-21T05:34:29.317Z,13.48
2023-03-21T05:36:57.228Z,12.18
2023-03-21T05:39:23.739Z,10.88
2023-03-21T05:41:50.416Z,13.57
2023-03-21T05:44:16.800Z,10.73
2023-03-21T05:46:43.413Z,15.73
2023-03-21T05:49:11.307Z,13.38
2023-03-21T05:51:37.845Z,8.13
2023-03-21T05:54:04.535Z,15.02
2023-03-21T05:56:31.015Z,11.20
2023-03-21T05:58:57.460Z,12.40
2023-03-21T06:01:24.648Z,13.07
2023-03-21T06:03:51.124Z,10.30
2023-03-21T06:06:17.555Z,13.80
2023-03-21T06:08:43.960Z,9.18
2023-03-21T06:11:23.213Z,11.38
2023-03-21T06:13:50.185Z,9.15
2023-03-21T06:16:16.682Z,13.23
2023-03-21T06:18:43.193Z,12.18
2023-03-21T06:21:09.639Z,8.23
2023-03-21T06:23:36.700Z,9.43
2023-03-21T06:26:04.051Z,8.48
2023-03-21T06:28:30.627Z,13.90
2023-03-21T06:30:57.107Z,10.38
2023-03-21T06:33:23.729Z,8.93
2023-03-21T06:35:55.606Z,11.10
2023-03-21T06:38:22.330Z,11.77
2023-03-21T06:40:49.386Z,8.95
2023-03-21T06:43:16.608Z,13.13
2023-03-21T06:45:44.339Z,12.15
2023-03-21T06:48:11.225Z,12.38
2023-03-21T06:50:37.723Z,11.10
2023-03-21T06:53:04.150Z,11.35
2023-03-21T06:55:30.869Z,10.60
2023-03-21T06:57:57.557Z,16.08
2023-03-21T07:00:24.663Z,11.18
2023-03-21T07:02:51.845Z,11.60
2023-03-21T07:05:18.462Z,9.73
2023-03-21T07:07:45.026Z,9.68
2023-03-21T07:10:12.109Z,10.75
2023-03-21T07:12:38.599Z,14.13
2023-03-21T07:15:07.034Z,10.77
2023-03-21T07:17:33.520Z,9.70
2023-03-21T07:19:59.989Z,12.50
2023-03-21T07:22:26.559Z,11.10
2023-03-21T07:25:04.038Z,9.98
2023-03-21T07:27:31.380Z,9.70
2023-03-21T07:29:57.840Z,11.05
2023-03-21T07:32:24.327Z,10.68
2023-03-21T07:34:50.812Z,11.90
2023-03-21T07:37:17.381Z,8.93
2023-03-21T07:39:43.827Z,13.27
2023-03-21T07:42:11.928Z,12.93
2023-03-21T07:44:38.632Z,7.88
2023-03-21T07:47:06.074Z,11.82
2023-03-21T07:49:33.076Z,12.77
2023-03-21T07:52:00.184Z,13.88
2023-03-21T07:54:28.511Z,10.25
2023-03-21T07:56:56.814Z,13.77
2023-03-21T07:59:23.560Z,14.23
2023-03-21T08:01:50.440Z,11.02
2023-03-21T08:04:16.895Z,11.10
2023-03-21T08:06:43.487Z,12.98
2023-03-21T08:09:09.969Z,12.25
2023-03-21T08:11:36.478Z,11.27
2023-03-21T08:14:02.970Z,14.68
2023-03-21T08:16:29.604Z,13.27
2023-03-21T08:18:56.032Z,15.07
2023-03-21T08:21:22.624Z,15.15
2023-03-21T08:23:49.041Z,12.55
2023-03-21T08:26:19.374Z,12.73
2023-03-21T08:28:46.421Z,11.82
2023-03-21T08:31:14.319Z,15.77
2023-03-21T08:33:40.835Z,12.30
2023-03-21T08:36:08.055Z,16.83
2023-03-21T08:38:34.658Z,12.20
2023-03-21T08:41:01.161Z,10.07
2023-03-21T08:43:28.959Z,15.48
2023-03-21T08:45:56.723Z,13.48
2023-03-21T08:48:23.498Z,15.18
2023-03-21T08:50:49.984Z,10.32
2023-03-21T08:53:16.431Z,12.35
2023-03-21T08:55:44.385Z,9.98
2023-03-21T08:58:11.284Z,10.43
2023-03-21T09:00:37.992Z,11.68
2023-03-21T09:03:04.968Z,12.52
2023-03-21T09:05:31.531Z,12.05
2023-03-21T09:07:57.989Z,8.80
2023-03-21T09:10:24.601Z,8.32
2023-03-21T09:12:53.151Z,11.13
2023-03-21T09:15:21.576Z,9.75
2023-03-21T09:17:50.181Z,11.43
2023-03-21T09:20:21.248Z,11.07
2023-03-21T09:22:50.290Z,12.18
2023-03-21T09:25:17.073Z,8.07
2023-03-21T09:27:45.807Z,9.65
2023-03-21T09:30:13.992Z,10.35
2023-03-21T09:32:40.500Z,9.07
2023-03-21T09:35:07.909Z,9.43
2023-03-21T09:37:38.578Z,9.95
2023-03-21T09:40:08.430Z,13.00
2023-03-21T09:42:43.820Z,11.05
2023-03-21T09:45:28.422Z,6.53
2023-03-21T09:47:57.046Z,12.40
2023-03-21T09:50:36.319Z,9.95
2023-03-21T09:53:07.114Z,13.95
2023-03-21T09:55:37.139Z,7.82
2023-03-21T09:58:29.049Z,9.13
2023-03-21T10:01:32.708Z,10.77
2023-03-21T10:04:04.700Z,8.48
2023-03-21T10:06:32.758Z,10.02
2023-03-21T10:09:24.348Z,11.85
2023-03-21T10:11:56.590Z,10.02
2023-03-21T10:14:29.614Z,8.45
2023-03-21T10:17:04.557Z,10.77
2023-03-21T10:19:31.041Z,8.93
2023-03-21T10:22:01.379Z,13.25
2023-03-21T10:24:31.940Z,8.95
2023-03-21T10:26:59.203Z,12.93
2023-03-21T10:29:37.073Z,11.60
2023-03-21T10:32:03.929Z,12.18
2023-03-21T10:34:36.302Z,11.75
2023-03-21T10:37:04.750Z,12.02
2023-03-21T10:39:38.269Z,8.65
2023-03-21T10:42:04.964Z,13.02
2023-03-21T10:44:36.121Z,11.63
2023-03-21T10:47:09.886Z,11.65
2023-03-21T10:49:56.541Z,13.90
2023-03-21T10:52:28.710Z,11.00
2023-03-21T10:55:22.384Z,16.27
2023-03-21T10:57:53.109Z,13.07
2023-03-21T11:00:23.905Z,15.10
2023-03-21T11:02:51.937Z,8.75
2023-03-21T11:05:33.236Z,10.90
2023-03-21T11:08:03.550Z,13.73
2023-03-21T11:10:36.838Z,7.60
2023-03-21T11:13:16.768Z,10.18
2023-03-21T11:15:54.776Z,8.55
2023-03-21T11:18:24.262Z,8.82
2023-03-21T11:20:58.071Z,8.40
2023-03-21T11:23:32.006Z,9.68
2023-03-21T11:26:02.923Z,10.68
2023-03-21T11:28:36.595Z,8.95
2023-03-21T11:31:05.020Z,11.88
2023-03-21T11:33:36.534Z,8.45
2023-03-21T11:36:20.806Z,11.25
2023-03-21T11:39:13.585Z,11.48
2023-03-21T11:41:42.042Z,9.10
2023-03-21T11:44:32.067Z,9.07
2023-03-21T11:46:58.650Z,8.70
2023-03-21T11:49:26.129Z,9.65
2023-03-21T11:52:09.423Z,6.60
2023-03-21T11:54:54.487Z,6.05
2023-03-21T11:57:43.936Z,8.23
2023-03-21T12:00:25.887Z,8.65
2023-03-21T12:03:23.864Z,9.35
2023-03-21T12:05:57.528Z,7.97
2023-03-21T12:08:38.021Z,8.55
2023-03-21T12:11:28.730Z,7.82
2023-03-21T12:14:00.952Z,6.93
2023-03-21T12:17:01.354Z,4.85
2023-03-21T12:19:40.787Z,8.82
2023-03-21T12:22:16.808Z,7.05
2023-03-21T12:24:53.491Z,8.23
2023-03-21T12:27:38.191Z,7.32
2023-03-21T12:30:23.563Z,3.83
2023-03-21T12:33:01.254Z,5.65
2023-03-21T12:35:35.930Z,4.03
2023-03-21T12:38:40.550Z,6.15
2023-03-21T12:41:34.136Z,5.15
2023-03-21T12:44:12.709Z,4.18
2023-03-21T12:46:45.177Z,6.28
2023-03-21T12:49:31.241Z,5.88
2023-03-21T12:52:04.855Z,5.40
2023-03-21T12:55:16.448Z,5.45
2023-03-21T12:57:57.157Z,5.90
2023-03-21T13:00:43.419Z,5.53
2023-03-21T13:03:19.562Z,5.40
2023-03-21T13:05:57.771Z,4.95
2023-03-21T13:08:31.569Z,6.57
2023-03-21T13:11:00.273Z,5.97
2023-03-21T13:13:36.029Z,7.88
2023-03-21T13:16:30.136Z,4.47
2023-03-21T13:19:00.380Z,4.78
2023-03-21T13:21:37.871Z,6.68
2023-03-21T13:24:48.124Z,6.30
2023-03-21T13:27:26.639Z,5.68
2023-03-21T13:30:06.552Z,5.22
2023-03-21T13:32:39.677Z,9.20
2023-03-21T13:35:09.768Z,7.70
2023-03-21T13:37:40.424Z,7.80
2023-03-21T13:40:29.262Z,6.05
2023-03-21T13:42:59.667Z,4.72
2023-03-21T13:45:29.614Z,5.38
2023-03-21T13:48:03.528Z,4.30
2023-03-21T13:50:36.396Z,6.43
2023-03-21T13:53:15.389Z,4.80
2023-03-21T13:55:44.863Z,5.22
2023-03-21T13:58:38.351Z,5.72
2023-03-21T14:01:17.152Z,5.70
2023-03-21T14:03:46.609Z,5.65
2023-03-21T14:06:14.688Z,4.50
2023-03-21T14:08:46.518Z,4.60
2023-03-21T14:11:19.268Z,5.65
2023-03-21T14:13:51.385Z,7.80
2023-03-21T14:16:21.920Z,6.38
2023-03-21T14:18:55.823Z,4.63
2023-03-21T14:21:31.218Z,6.13
2023-03-21T14:23:59.878Z,6.30
2023-03-21T14:26:30.346Z,5.72
2023-03-21T14:28:58.296Z,5.50
2023-03-21T14:31:26.434Z,5.72
2023-03-21T14:34:01.748Z,5.60
2023-03-21T14:36:31.558Z,6.93
2023-03-21T14:39:15.112Z,6.38
2023-03-21T14:41:54.157Z,5.18
2023-03-21T14:44:44.140Z,4.28
2023-03-21T14:47:20.959Z,5.53
2023-03-21T14:49:49.660Z,4.05
2023-03-21T14:52:30.344Z,4.78
2023-03-21T14:54:57.506Z,5.82
2023-03-21T14:57:28.798Z,4.10
2023-03-21T14:59:59.137Z,4.47
2023-03-21T15:02:31.091Z,5.28
2023-03-21T15:05:07.999Z,8.25
2023-03-21T15:07:36.319Z,4.97
2023-03-21T15:10:13.370Z,5.85
2023-03-21T15:13:00.228Z,7.47
2023-03-21T15:15:29.238Z,4.82
2023-03-21T15:18:02.837Z,5.22
2023-03-21T15:20:32.100Z,4.68
2023-03-21T15:23:03.930Z,4.38
2023-03-21T15:25:36.112Z,4.75
2023-03-21T15:28:04.847Z,5.47
2023-03-21T15:30:33.976Z,5.95
2023-03-21T15:33:09.482Z,9.00
2023-03-21T15:35:43.348Z,6.93
2023-03-21T15:38:21.894Z,5.25
2023-03-21T15:40:48.376Z,4.78
2023-03-21T15:43:18.136Z,5.20
2023-03-21T15:45:56.297Z,3.10
2023-03-21T15:48:34.200Z,4.68
2023-03-21T15:51:06.998Z,5.15
2023-03-21T15:53:36.348Z,5.18
2023-03-21T15:56:06.089Z,5.82
2023-03-21T15:58:45.422Z,3.03
2023-03-21T16:01:20.408Z,5.03
2023-03-21T16:03:54.777Z,4.40
2023-03-21T16:06:25.692Z,3.60
2023-03-21T16:09:03.286Z,3.53
2023-03-21T16:11:37.822Z,3.25
2023-03-21T16:14:04.639Z,4.90
2023-03-21T16:16:31.646Z,3.88
2023-03-21T16:18:59.983Z,3.78
2023-03-21T16:21:29.427Z,4.68
2023-03-21T16:23:56.315Z,6.57
2023-03-21T16:26:30.003Z,4.53
2023-03-21T16:28:57.547Z,5.72
2023-03-21T16:31:26.646Z,4.90
2023-03-21T16:33:53.430Z,5.65
2023-03-21T16:36:31.429Z,4.93
2023-03-21T16:38:59.024Z,4.13
2023-03-21T16:41:27.296Z,5.30
2023-03-21T16:43:54.486Z,5.75
2023-03-21T16:46:23.733Z,5.63
2023-03-21T16:48:52.873Z,3.97
2023-03-21T16:53:49.610Z,3.58
2023-03-21T16:56:23.078Z,3.72
2023-03-21T16:58:49.820Z,4.05
2023-03-21T17:01:19.699Z,5.32
2023-03-21T17:03:49.200Z,4.35
2023-03-21T17:06:21.851Z,4.55
2023-03-21T17:08:48.863Z,5.45
2023-03-21T17:11:22.382Z,6.05
2023-03-21T17:13:50.521Z,3.97
2023-03-21T17:16:20.791Z,4.60
2023-03-21T17:18:47.833Z,4.53
2023-03-21T17:21:18.063Z,4.28
2023-03-21T17:23:44.571Z,7.38
2023-03-21T17:26:16.047Z,4.97
2023-03-21T17:28:42.525Z,6.97
2023-03-21T17:31:14.334Z,5.32
2023-03-21T17:33:41.022Z,5.63
2023-03-21T17:36:14.500Z,5.20
2023-03-21T17:38:42.063Z,4.53
2023-03-21T17:41:13.024Z,4.78
2023-03-21T17:43:40.049Z,7.45
2023-03-21T17:46:11.077Z,4.40
2023-03-21T17:48:38.011Z,5.63
2023-03-21T17:51:04.893Z,5.78
2023-03-21T17:53:31.322Z,4.80
2023-03-21T17:55:57.835Z,4.55
2023-03-21T17:58:24.375Z,9.13
2023-03-21T18:00:50.883Z,8.05
2023-03-21T18:03:18.661Z,5.00
2023-03-21T18:05:46.112Z,3.90
2023-03-21T18:08:13.071Z,5.55
2023-03-21T18:10:41.451Z,3.65
2023-03-21T18:13:08.383Z,9.50
2023-03-21T18:15:37.727Z,3.35
2023-03-21T18:18:05.529Z,5.85
2023-03-21T18:23:19.225Z,5.35
2023-03-21T18:25:45.858Z,6.38
2023-03-21T18:28:13.225Z,5.05
2023-03-21T18:31:05.294Z,7.95
2023-03-21T18:33:28.231Z,6.20
2023-03-21T18:35:59.157Z,6.28
2023-03-21T18:38:27.727Z,6.80
2023-03-21T18:40:54.775Z,6.82
2023-03-21T18:46:08.614Z,9.77
2023-03-21T18:48:35.871Z,6.88
2023-03-21T18:51:02.873Z,5.82
2023-03-21T18:53:29.861Z,8.63
2023-03-21T18:55:57.409Z,7.32
2023-03-21T18:58:24.808Z,8.88
2023-03-21T19:00:53.392Z,6.40
2023-03-21T19:03:34.089Z,6.65
2023-03-21T19:06:04.021Z,9.43
2023-03-21T19:08:31.020Z,8.05
2023-03-21T19:11:00.133Z,8.00
2023-03-21T19:13:29.838Z,9.07
2023-03-21T19:15:56.896Z,7.72
2023-03-21T19:18:41.569Z,9.60
2023-03-21T19:21:09.956Z,10.85
2023-03-21T19:24:11.753Z,10.43
2023-03-21T19:26:23.533Z,9.07
2023-03-21T19:28:49.960Z,9.60
2023-03-21T19:31:17.861Z,10.75
2023-03-21T19:33:44.575Z,9.73
2023-03-21T19:36:21.163Z,11.20
2023-03-21T19:38:48.484Z,12.50
2023-03-21T19:41:15.017Z,9.45
2023-03-21T19:43:52.822Z,10.05
2023-03-21T19:46:22.526Z,10.40
2023-03-21T19:48:50.210Z,10.18
2023-03-21T19:51:32.923Z,12.68
2023-03-21T19:54:01.229Z,14.05
2023-03-21T19:56:28.134Z,12.73
2023-03-21T19:58:55.538Z,10.90
2023-03-21T20:01:22.842Z,10.38
2023-03-21T20:03:49.729Z,11.50
2023-03-21T20:06:16.710Z,12.85
2023-03-21T20:09:24.715Z,12.50
2023-03-21T20:11:29.577Z,13.23
2023-03-21T20:13:56.263Z,11.23
2023-03-21T20:16:23.027Z,12.38
2023-03-21T20:18:49.710Z,14.27
2023-03-21T20:21:21.508Z,13.80
2023-03-21T20:23:50.930Z,13.15
2023-03-21T20:26:18.305Z,10.57
2023-03-21T20:28:56.580Z,14.27
2023-03-21T20:31:30.831Z,15.95
2023-03-21T20:33:57.347Z,12.68
2023-03-21T20:36:38.778Z,12.45
2023-03-21T20:39:06.830Z,16.42
2023-03-21T20:41:33.279Z,14.48
2023-03-21T20:46:47.868Z,15.27
2023-03-21T20:49:15.292Z,15.82
2023-03-21T20:54:29.781Z,14.95
2023-03-21T20:56:57.157Z,16.58
2023-03-21T20:59:27.660Z,16.40
2023-03-21T21:01:58.318Z,17.50
2023-03-21T21:04:46.719Z,19.13
2023-03-21T21:07:17.699Z,19.92
2023-03-21T21:09:45.025Z,21.45
2023-03-21T21:12:12.723Z,19.45
2023-03-21T21:14:39.453Z,23.23
2023-03-21T21:17:26.730Z,22.38
2023-03-21T21:19:54.408Z,18.23
2023-03-21T21:22:20.921Z,19.67
2023-03-21T21:24:47.913Z,20.85
2023-03-21T21:27:14.415Z,23.80
2023-03-21T21:29:43.207Z,22.10
2023-03-21T21:32:09.720Z,20.50
2023-03-21T21:34:37.049Z,22.73
2023-03-21T21:37:04.061Z,22.33
2023-03-21T21:39:37.681Z,22.15
2023-03-21T21:42:05.137Z,22.05
2023-03-21T21:44:31.688Z,20.80
2023-03-21T21:46:58.483Z,23.80
2023-03-21T21:49:25.120Z,21.98
2023-03-21T21:51:51.503Z,25.05
2023-03-21T21:54:20.017Z,24.73
2023-03-21T21:56:54.127Z,22.13
2023-03-21T21:59:22.042Z,23.70
2023-03-21T22:01:51.274Z,21.38
2023-03-21T22:04:18.334Z,20.65
2023-03-21T22:06:45.034Z,23.45
2023-03-21T22:09:11.428Z,20.90
2023-03-21T22:11:37.888Z,21.83
2023-03-21T22:14:04.295Z,21.33
2023-03-21T22:16:30.838Z,23.27
2023-03-21T22:18:57.372Z,21.50
2023-03-21T22:21:23.946Z,23.23
2023-03-21T22:23:51.570Z,22.70
2023-03-21T22:26:18.185Z,23.05
2023-03-21T22:28:44.823Z,26.05
2023-03-21T22:31:14.207Z,25.80
2023-03-21T22:33:40.871Z,21.65
2023-03-21T22:36:08.002Z,24.25
2023-03-21T22:38:34.858Z,24.20
2023-03-21T22:41:03.413Z,24.63
2023-03-21T22:43:34.236Z,23.73
2023-03-21T22:46:05.412Z,26.48
2023-03-21T22:48:32.919Z,24.70
2023-03-21T22:51:00.467Z,24.50
2023-03-21T22:53:27.193Z,27.70
2023-03-21T22:55:53.963Z,25.67
2023-03-21T22:58:20.947Z,27.63
2023-03-21T23:00:47.826Z,23.95
2023-03-21T23:03:16.536Z,26.15
2023-03-21T23:05:44.276Z,27.80
2023-03-21T23:08:10.915Z,26.02
2023-03-21T23:10:39.568Z,26.35
2023-03-21T23:13:06.568Z,27.92
2023-03-21T23:15:33.100Z,29.02
2023-03-21T23:17:59.613Z,28.38
2023-03-21T23:20:26.177Z,33.58
2023-03-21T23:22:52.674Z,24.25
2023-03-21T23:25:20.644Z,30.60
2023-03-21T23:27:47.504Z,28.10
2023-03-21T23:30:14.136Z,26.77
2023-03-21T23:32:40.734Z,25.35
2023-03-21T23:35:08.267Z,31.45
2023-03-21T23:37:34.766Z,28.92
2023-03-21T23:40:01.300Z,28.45
2023-03-21T23:42:29.459Z,24.25
2023-03-21T23:44:56.087Z,29.63
2023-03-21T23:47:22.557Z,32.30
2023-03-21T23:49:49.990Z,26.10
2023-03-21T23:52:16.449Z,28.88
2023-03-21T23:54:43.013Z,28.13
2023-03-21T23:57:09.725Z,29.55
2023-03-21T23:59:36.204Z,29.48
